createdAt,value
2023-03-08T00:01:22.746Z,69.54
2023-03-08T00:03:58.355Z,67.34
2023-03-08T00:06:27.040Z,65.67
2023-03-08T00:08:59.285Z,62.41
2023-03-08T00:11:28.797Z,58.63
2023-03-08T00:13:57.888Z,54.76
2023-03-08T00:16:26.136Z,55.33
2023-03-08T00:18:54.455Z,57.94
2023-03-08T00:21:22.816Z,58.93
2023-03-08T00:23:54.838Z,64.53
2023-03-08T00:26:23.459Z,68.96
2023-03-08T00:28:53.144Z,68.22
2023-03-08T00:31:21.638Z,66.27
2023-03-08T00:33:54.124Z,64.25
2023-03-08T00:36:22.622Z,62.44
2023-03-08T00:38:51.700Z,56.54
2023-03-08T00:41:20.076Z,52.86
2023-03-08T00:43:48.768Z,54.02
2023-03-08T00:46:17.286Z,56.06
2023-03-08T00:48:46.742Z,57.55
2023-03-08T00:51:18.913Z,58.47
2023-03-08T00:53:48.838Z,65.80
2023-03-08T00:56:16.999Z,69.13
2023-03-08T00:58:45.171Z,67.74
2023-03-08T01:01:18.432Z,64.61
2023-03-08T01:03:49.006Z,62.84
2023-03-08T01:06:17.375Z,58.28
2023-03-08T01:08:46.048Z,54.96
2023-03-08T01:11:23.646Z,55.56
2023-03-08T01:13:52.981Z,56.85
2023-03-08T01:16:31.148Z,62.50
2023-03-08T01:19:01.570Z,67.59
2023-03-08T01:21:30.885Z,66.30
2023-03-08T01:23:59.249Z,65.18
2023-03-08T01:26:29.783Z,61.73
2023-03-08T01:28:58.568Z,57.64
2023-03-08T01:31:31.156Z,54.88
2023-03-08T01:34:01.053Z,56.26
2023-03-08T01:36:29.439Z,57.05
2023-03-08T01:39:00.551Z,58.85
2023-03-08T01:41:30.686Z,65.15
2023-03-08T01:43:59.069Z,69.46
2023-03-08T01:46:28.053Z,68.03
2023-03-08T01:49:18.445Z,67.21
2023-03-08T01:51:51.236Z,65.29
2023-03-08T01:54:24.013Z,62.84
2023-03-08T01:56:53.649Z,58.14
2023-03-08T01:59:23.025Z,53.87
2023-03-08T02:01:52.105Z,55.06
2023-03-08T02:04:20.998Z,56.14
2023-03-08T02:06:49.383Z,57.79
2023-03-08T02:09:21.437Z,62.96
2023-03-08T02:11:49.917Z,69.11
2023-03-08T02:14:18.091Z,67.80
2023-03-08T02:16:49.129Z,65.80
2023-03-08T02:19:22.221Z,62.63
2023-03-08T02:21:50.291Z,58.87
2023-03-08T02:24:23.173Z,55.33
2023-03-08T02:26:53.394Z,55.28
2023-03-08T02:29:21.473Z,56.81
2023-03-08T02:31:49.653Z,59.52
2023-03-08T02:34:17.911Z,65.73
2023-03-08T02:36:46.083Z,69.88
2023-03-08T02:39:14.666Z,68.16
2023-03-08T02:41:42.843Z,65.77
2023-03-08T02:44:10.945Z,64.41
2023-03-08T02:46:39.081Z,62.58
2023-03-08T02:49:07.454Z,57.75
2023-03-08T02:51:35.628Z,54.30
2023-03-08T02:54:04.213Z,54.93
2023-03-08T02:56:32.381Z,56.53
2023-03-08T02:59:00.663Z,57.96
2023-03-08T03:01:29.623Z,62.34
2023-03-08T03:03:58.033Z,68.09
2023-03-08T03:06:26.363Z,68.00
2023-03-08T03:08:57.234Z,66.35
2023-03-08T03:11:26.023Z,64.57
2023-03-08T03:13:57.059Z,63.01
2023-03-08T03:16:27.383Z,58.58
2023-03-08T03:18:56.777Z,54.66
2023-03-08T03:21:25.464Z,55.18
2023-03-08T03:23:55.391Z,55.95
2023-03-08T03:26:27.745Z,57.45
2023-03-08T03:28:58.175Z,61.83
2023-03-08T03:31:28.661Z,67.71
2023-03-08T03:33:57.080Z,67.28
2023-03-08T03:36:26.481Z,65.53
2023-03-08T03:38:55.474Z,63.71
2023-03-08T03:41:24.275Z,61.68
2023-03-08T03:44:00.826Z,57.60
2023-03-08T03:46:30.241Z,54.31
2023-03-08T03:48:59.116Z,54.44
2023-03-08T03:51:29.745Z,55.41
2023-03-08T03:54:08.056Z,56.30
2023-03-08T03:56:36.543Z,58.15
2023-03-08T03:59:05.326Z,62.83
2023-03-08T04:01:34.128Z,68.81
2023-03-08T04:04:12.730Z,67.93
2023-03-08T04:06:43.269Z,66.12
2023-03-08T04:09:15.638Z,64.41
2023-03-08T04:11:46.213Z,62.37
2023-03-08T04:14:18.014Z,56.73
2023-03-08T04:16:46.700Z,52.90
2023-03-08T04:19:21.528Z,53.27
2023-03-08T04:21:52.580Z,55.42
2023-03-08T04:24:21.561Z,56.21
2023-03-08T04:26:51.680Z,58.01
2023-03-08T04:29:20.563Z,59.82
2023-03-08T04:31:48.972Z,64.93
2023-03-08T04:34:19.368Z,70.85
2023-03-08T04:36:49.388Z,70.34
2023-03-08T04:39:17.861Z,70.18
2023-03-08T04:41:46.544Z,65.92
2023-03-08T04:44:24.034Z,63.46
2023-03-08T04:46:53.960Z,57.48
2023-03-08T04:49:30.226Z,54.51
2023-03-08T04:52:01.770Z,54.71
2023-03-08T04:54:30.349Z,58.13
2023-03-08T04:57:03.385Z,63.49
2023-03-08T04:59:32.835Z,66.85
2023-03-08T05:02:04.152Z,65.43
2023-03-08T05:04:34.456Z,63.61
2023-03-08T05:07:02.885Z,58.14
2023-03-08T05:09:33.816Z,55.66
2023-03-08T05:12:03.319Z,55.23
2023-03-08T05:14:40.811Z,56.14
2023-03-08T05:17:08.980Z,58.53
2023-03-08T05:19:37.155Z,63.14
2023-03-08T05:22:06.364Z,68.57
2023-03-08T05:24:35.446Z,66.23
2023-03-08T05:27:10.066Z,65.31
2023-03-08T05:29:38.237Z,62.21
2023-03-08T05:32:07.271Z,57.08
2023-03-08T05:34:35.756Z,54.04
2023-03-08T05:37:05.111Z,54.72
2023-03-08T05:39:34.611Z,56.76
2023-03-08T05:42:13.028Z,57.76
2023-03-08T05:44:42.525Z,63.08
2023-03-08T05:47:12.004Z,68.04
2023-03-08T05:49:40.359Z,66.82
2023-03-08T05:52:08.683Z,64.66
2023-03-08T05:54:37.262Z,62.23
2023-03-08T05:57:09.749Z,57.54
2023-03-08T05:59:38.536Z,54.83
2023-03-08T06:02:06.921Z,55.04
2023-03-08T06:04:45.204Z,55.83
2023-03-08T06:07:14.300Z,57.55
2023-03-08T06:09:46.570Z,59.37
2023-03-08T06:12:16.489Z,64.03
2023-03-08T06:14:46.085Z,69.55
2023-03-08T06:17:15.282Z,68.73
2023-03-08T06:19:46.421Z,67.16
2023-03-08T06:22:17.167Z,68.12
2023-03-08T06:24:49.988Z,63.44
2023-03-08T06:27:24.250Z,56.26
2023-03-08T06:29:53.449Z,52.68
2023-03-08T06:32:22.408Z,53.14
2023-03-08T06:34:51.418Z,55.30
2023-03-08T06:37:19.723Z,55.69
2023-03-08T06:39:48.602Z,58.45
2023-03-08T06:42:16.963Z,59.68
2023-03-08T06:44:45.668Z,64.44
2023-03-08T06:47:13.838Z,69.63
2023-03-08T06:49:42.534Z,65.89
2023-03-08T06:52:10.975Z,63.11
2023-03-08T06:54:39.479Z,58.86
2023-03-08T06:57:07.655Z,54.95
2023-03-08T06:59:35.722Z,55.39
2023-03-08T07:02:03.895Z,56.76
2023-03-08T07:04:32.207Z,59.18
2023-03-08T07:07:00.578Z,60.28
2023-03-08T07:09:28.918Z,64.74
2023-03-08T07:11:57.193Z,69.29
2023-03-08T07:14:25.365Z,67.20
2023-03-08T07:16:53.539Z,64.81
2023-03-08T07:19:21.913Z,62.75
2023-03-08T07:21:50.083Z,57.41
2023-03-08T07:24:18.358Z,53.52
2023-03-08T07:26:46.429Z,54.40
2023-03-08T07:29:14.600Z,55.46
2023-03-08T07:31:42.713Z,56.54
2023-03-08T07:34:11.051Z,58.17
2023-03-08T07:36:40.332Z,62.71
2023-03-08T07:39:08.428Z,67.91
2023-03-08T07:41:36.901Z,65.65
2023-03-08T07:44:05.690Z,62.45
2023-03-08T07:46:33.789Z,58.88
2023-03-08T07:49:02.029Z,55.01
2023-03-08T07:51:30.209Z,54.77
2023-03-08T07:53:58.375Z,55.93
2023-03-08T07:56:26.553Z,56.94
2023-03-08T07:58:57.485Z,58.25
2023-03-08T08:01:25.778Z,59.18
2023-03-08T08:03:53.992Z,63.25
2023-03-08T08:06:22.208Z,68.03
2023-03-08T08:08:50.383Z,66.68
2023-03-08T08:11:22.138Z,63.47
2023-03-08T08:13:50.306Z,57.58
2023-03-08T08:16:18.721Z,53.78
2023-03-08T08:18:47.061Z,53.48
2023-03-08T08:21:16.438Z,54.01
2023-03-08T08:23:45.140Z,55.05
2023-03-08T08:26:15.976Z,55.57
2023-03-08T08:28:45.218Z,56.77
2023-03-08T08:31:16.681Z,58.57
2023-03-08T08:33:44.899Z,59.27
2023-03-08T08:36:15.911Z,64.01
2023-03-08T08:38:46.261Z,66.81
2023-03-08T08:41:16.994Z,62.57
2023-03-08T08:43:46.182Z,56.91
2023-03-08T08:46:15.494Z,53.21
2023-03-08T08:48:44.278Z,54.43
2023-03-08T08:51:14.179Z,55.87
2023-03-08T08:53:44.303Z,56.31
2023-03-08T08:56:26.747Z,57.48
2023-03-08T08:58:59.600Z,58.66
2023-03-08T09:01:28.888Z,64.13
2023-03-08T09:03:57.339Z,70.27
2023-03-08T09:06:27.519Z,66.76
2023-03-08T09:08:57.913Z,63.78
2023-03-08T09:11:27.743Z,58.10
2023-03-08T09:13:56.509Z,53.04
2023-03-08T09:16:27.649Z,53.34
2023-03-08T09:18:57.357Z,54.05
2023-03-08T09:21:26.740Z,54.51
2023-03-08T09:23:55.856Z,55.63
2023-03-08T09:26:24.030Z,56.72
2023-03-08T09:28:52.305Z,57.46
2023-03-08T09:31:20.540Z,59.32
2023-03-08T09:33:52.170Z,59.57
2023-03-08T09:36:21.225Z,63.86
2023-03-08T09:38:50.732Z,67.29
2023-03-08T09:41:30.986Z,65.07
2023-03-08T09:44:43.897Z,64.29
2023-03-08T09:47:15.151Z,57.42
2023-03-08T09:49:46.499Z,52.64
2023-03-08T09:52:44.059Z,52.81
2023-03-08T09:55:30.422Z,53.07
2023-03-08T09:58:23.208Z,54.20
2023-03-08T10:00:51.637Z,54.47
2023-03-08T10:04:08.426Z,55.35
2023-03-08T10:06:43.329Z,55.91
2023-03-08T10:09:25.525Z,57.14
2023-03-08T10:12:31.479Z,57.53
2023-03-08T10:15:11.570Z,58.10
2023-03-08T10:18:02.745Z,59.16
2023-03-08T10:20:41.458Z,59.33
2023-03-08T10:23:21.440Z,60.96
2023-03-08T10:25:50.899Z,64.57
2023-03-08T10:28:24.223Z,66.15
2023-03-08T10:30:56.394Z,64.55
2023-03-08T10:33:27.580Z,57.91
2023-03-08T10:36:09.718Z,53.75
2023-03-08T10:38:38.506Z,52.60
2023-03-08T10:41:16.099Z,54.10
2023-03-08T10:43:50.484Z,54.86
2023-03-08T10:46:21.929Z,55.34
2023-03-08T10:48:50.648Z,56.47
2023-03-08T10:51:23.020Z,56.86
2023-03-08T10:53:57.436Z,57.39
2023-03-08T10:56:39.442Z,57.91
2023-03-08T10:59:17.980Z,58.86
2023-03-08T11:01:51.955Z,59.28
2023-03-08T11:04:22.047Z,59.92
2023-03-08T11:06:50.656Z,60.18
2023-03-08T11:09:30.017Z,63.44
2023-03-08T11:11:59.389Z,65.32
2023-03-08T11:14:29.950Z,62.82
2023-03-08T11:17:06.280Z,55.52
2023-03-08T11:19:43.277Z,53.52
2023-03-08T11:22:49.526Z,53.07
2023-03-08T11:25:34.184Z,52.98
2023-03-08T11:28:08.464Z,53.23
2023-03-08T11:30:45.376Z,53.89
2023-03-08T11:33:32.380Z,53.54
2023-03-08T11:36:21.761Z,54.01
2023-03-08T11:39:06.620Z,53.96
2023-03-08T11:41:44.932Z,53.81
2023-03-08T11:44:27.415Z,54.57
2023-03-08T11:47:27.356Z,54.15
2023-03-08T11:50:17.240Z,55.26
2023-03-08T11:53:09.889Z,54.62
2023-03-08T11:56:02.835Z,55.42
2023-03-08T11:58:33.671Z,55.12
2023-03-08T12:01:04.582Z,55.42
2023-03-08T12:03:40.967Z,55.56
2023-03-08T12:06:29.362Z,56.28
2023-03-08T12:09:04.626Z,57.04
2023-03-08T12:11:36.408Z,57.75
2023-03-08T12:14:10.918Z,58.53
2023-03-08T12:16:45.016Z,60.12
2023-03-08T12:19:21.402Z,60.46
2023-03-08T12:21:56.645Z,65.20
2023-03-08T12:24:30.697Z,68.03
2023-03-08T12:27:04.471Z,66.88
2023-03-08T12:29:36.385Z,60.15
2023-03-08T12:32:06.198Z,53.26
2023-03-08T12:34:43.415Z,53.20
2023-03-08T12:37:39.494Z,53.62
2023-03-08T12:40:30.482Z,53.99
2023-03-08T12:43:09.270Z,54.25
2023-03-08T12:45:39.423Z,55.23
2023-03-08T12:48:07.561Z,55.95
2023-03-08T12:50:46.013Z,57.44
2023-03-08T12:53:22.458Z,57.84
2023-03-08T12:56:26.637Z,58.25
2023-03-08T12:58:57.492Z,59.24
2023-03-08T13:01:39.801Z,59.98
2023-03-08T13:04:39.675Z,60.83
2023-03-08T13:07:13.719Z,66.00
2023-03-08T13:09:41.895Z,68.42
2023-03-08T13:12:15.770Z,66.36
2023-03-08T13:14:45.094Z,61.91
2023-03-08T13:17:39.558Z,56.06
2023-03-08T13:20:48.721Z,51.93
2023-03-08T13:23:19.889Z,52.51
2023-03-08T13:25:57.068Z,53.97
2023-03-08T13:28:34.754Z,54.93
2023-03-08T13:31:16.725Z,55.60
2023-03-08T13:33:53.842Z,56.91
2023-03-08T13:36:40.194Z,57.77
2023-03-08T13:39:18.741Z,58.62
2023-03-08T13:41:48.149Z,59.56
2023-03-08T13:44:27.468Z,63.63
2023-03-08T13:46:57.889Z,70.33
2023-03-08T13:49:33.651Z,67.28
2023-03-08T13:52:04.541Z,66.33
2023-03-08T13:54:35.588Z,62.34
2023-03-08T13:57:07.206Z,59.57
2023-03-08T13:59:38.175Z,55.75
2023-03-08T14:02:30.552Z,55.90
2023-03-08T14:04:59.528Z,56.99
2023-03-08T14:07:30.894Z,59.07
2023-03-08T14:09:59.679Z,59.81
2023-03-08T14:12:31.172Z,64.89
2023-03-08T14:15:02.001Z,68.75
2023-03-08T14:17:32.317Z,67.94
2023-03-08T14:20:05.961Z,65.62
2023-03-08T14:22:39.866Z,64.18
2023-03-08T14:25:23.298Z,59.16
2023-03-08T14:27:51.908Z,54.66
2023-03-08T14:30:22.943Z,55.22
2023-03-08T14:33:20.190Z,56.19
2023-03-08T14:36:00.206Z,57.11
2023-03-08T14:38:33.123Z,63.96
2023-03-08T14:41:06.425Z,67.47
2023-03-08T14:43:34.795Z,67.07
2023-03-08T14:46:05.991Z,65.15
2023-03-08T14:48:36.228Z,59.91
2023-03-08T14:51:20.194Z,55.10
2023-03-08T14:54:00.731Z,54.69
2023-03-08T14:56:30.360Z,56.69
2023-03-08T14:59:03.952Z,56.59
2023-03-08T15:01:36.772Z,59.06
2023-03-08T15:04:15.720Z,64.80
2023-03-08T15:06:47.118Z,70.92
2023-03-08T15:09:17.861Z,67.98
2023-03-08T15:11:47.329Z,65.91
2023-03-08T15:14:15.833Z,63.41
2023-03-08T15:16:44.152Z,58.38
2023-03-08T15:19:14.112Z,55.30
2023-03-08T15:21:43.116Z,55.87
2023-03-08T15:24:16.163Z,57.59
2023-03-08T15:26:45.301Z,58.67
2023-03-08T15:29:39.785Z,64.81
2023-03-08T15:32:08.502Z,69.53
2023-03-08T15:34:36.634Z,66.42
2023-03-08T15:37:05.138Z,63.10
2023-03-08T15:39:33.674Z,57.71
2023-03-08T15:42:01.881Z,55.86
2023-03-08T15:44:30.148Z,56.94
2023-03-08T15:46:58.339Z,59.48
2023-03-08T15:49:26.586Z,64.83
2023-03-08T15:51:55.050Z,68.61
2023-03-08T15:54:23.236Z,66.32
2023-03-08T15:56:51.408Z,64.21
2023-03-08T15:59:19.581Z,62.14
2023-03-08T16:01:47.780Z,58.10
2023-03-08T16:04:15.924Z,56.03
2023-03-08T16:06:44.308Z,57.42
2023-03-08T16:09:12.478Z,59.95
2023-03-08T16:11:40.670Z,65.19
2023-03-08T16:14:08.900Z,68.22
2023-03-08T16:16:45.311Z,66.59
2023-03-08T16:19:14.184Z,65.84
2023-03-08T16:21:42.269Z,63.61
2023-03-08T16:24:11.585Z,61.96
2023-03-08T16:26:39.723Z,56.96
2023-03-08T16:29:09.012Z,54.27
2023-03-08T16:31:37.368Z,55.08
2023-03-08T16:34:06.498Z,56.53
2023-03-08T16:36:34.676Z,58.00
2023-03-08T16:39:04.273Z,63.51
2023-03-08T16:41:36.470Z,69.11
2023-03-08T16:44:05.645Z,67.61
2023-03-08T16:46:34.117Z,65.39
2023-03-08T16:49:03.396Z,63.39
2023-03-08T16:51:31.665Z,58.76
2023-03-08T16:53:59.855Z,55.10
2023-03-08T16:56:29.263Z,55.50
2023-03-08T16:58:59.391Z,56.52
2023-03-08T17:01:28.488Z,57.94
2023-03-08T17:03:57.356Z,62.69
2023-03-08T17:06:28.169Z,68.65
2023-03-08T17:09:00.049Z,67.26
2023-03-08T17:11:31.479Z,65.38
2023-03-08T17:14:01.636Z,63.55
2023-03-08T17:16:31.324Z,59.01
2023-03-08T17:19:04.685Z,55.09
2023-03-08T17:21:38.255Z,55.27
2023-03-08T17:24:08.233Z,56.06
2023-03-08T17:26:41.814Z,57.07
2023-03-08T17:29:10.104Z,58.53
2023-03-08T17:31:40.870Z,64.54
2023-03-08T17:34:09.519Z,69.95
2023-03-08T17:36:38.219Z,68.38
2023-03-08T17:39:06.693Z,66.11
2023-03-08T17:41:35.900Z,64.28
2023-03-08T17:44:04.361Z,62.59
2023-03-08T17:46:32.919Z,58.34
2023-03-08T17:49:01.117Z,54.95
2023-03-08T17:51:30.825Z,55.13
2023-03-08T17:54:01.168Z,55.84
2023-03-08T17:56:30.352Z,56.96
2023-03-08T17:59:00.590Z,55.58
2023-03-08T18:01:30.883Z,63.81
2023-03-08T18:04:00.101Z,69.52
2023-03-08T18:06:38.008Z,67.93
2023-03-08T18:09:08.928Z,66.23
2023-03-08T18:11:40.066Z,64.46
2023-03-08T18:14:10.742Z,62.07
2023-03-08T18:16:39.071Z,57.68
2023-03-08T18:19:07.761Z,54.21
2023-03-08T18:21:37.242Z,55.05
2023-03-08T18:24:07.173Z,56.30
2023-03-08T18:26:35.355Z,57.50
2023-03-08T18:29:03.636Z,62.57
2023-03-08T18:31:35.236Z,68.11
2023-03-08T18:34:03.446Z,67.03
2023-03-08T18:36:31.818Z,64.61
2023-03-08T18:38:59.990Z,62.83
2023-03-08T18:41:29.813Z,59.03
2023-03-08T18:43:59.308Z,55.32
2023-03-08T18:46:29.892Z,55.85
2023-03-08T18:48:58.724Z,56.44
2023-03-08T18:51:28.546Z,54.85
2023-03-08T18:53:58.030Z,62.83
2023-03-08T18:56:27.023Z,68.68
2023-03-08T18:58:57.279Z,67.53
2023-03-08T19:01:26.364Z,65.43
2023-03-08T19:03:54.541Z,63.58
2023-03-08T19:06:22.691Z,62.11
2023-03-08T19:08:50.856Z,57.76
2023-03-08T19:11:21.900Z,54.83
2023-03-08T19:13:50.373Z,55.19
2023-03-08T19:16:27.957Z,57.10
2023-03-08T19:18:59.230Z,57.79
2023-03-08T19:21:29.966Z,63.88
2023-03-08T19:23:59.045Z,69.05
2023-03-08T19:26:39.188Z,67.83
2023-03-08T19:29:18.936Z,66.00
2023-03-08T19:32:01.775Z,64.03
2023-03-08T19:34:33.226Z,62.41
2023-03-08T19:37:02.339Z,57.93
2023-03-08T19:39:32.931Z,54.97
2023-03-08T19:42:02.024Z,54.69
2023-03-08T19:44:31.528Z,53.35
2023-03-08T19:47:01.131Z,57.70
2023-03-08T19:49:32.471Z,62.68
2023-03-08T19:52:02.773Z,68.36
2023-03-08T19:54:31.894Z,66.45
2023-03-08T19:57:01.213Z,64.55
2023-03-08T19:59:29.468Z,62.80
2023-03-08T20:01:58.259Z,61.69
2023-03-08T20:04:26.431Z,57.88
2023-03-08T20:06:54.599Z,55.10
2023-03-08T20:09:22.984Z,55.76
2023-03-08T20:11:57.603Z,57.92
2023-03-08T20:14:27.873Z,62.10
2023-03-08T20:16:56.715Z,67.03
2023-03-08T20:19:25.194Z,65.59
2023-03-08T20:21:53.481Z,63.97
2023-03-08T20:24:23.508Z,62.69
2023-03-08T20:26:51.975Z,61.79
2023-03-08T20:29:20.230Z,58.12
2023-03-08T20:31:48.715Z,55.07
2023-03-08T20:34:17.503Z,55.41
2023-03-08T20:36:45.673Z,57.89
2023-03-08T20:39:13.948Z,58.32
2023-03-08T20:41:42.136Z,64.11
2023-03-08T20:44:11.517Z,69.00
2023-03-08T20:46:39.703Z,67.81
2023-03-08T20:49:07.965Z,65.61
2023-03-08T20:51:36.557Z,63.63
2023-03-08T20:54:06.365Z,62.40
2023-03-08T20:56:34.751Z,58.08
2023-03-08T20:59:02.909Z,54.90
2023-03-08T21:01:33.292Z,55.57
2023-03-08T21:04:01.610Z,56.99
2023-03-08T21:06:31.628Z,58.17
2023-03-08T21:09:00.514Z,63.89
2023-03-08T21:11:29.008Z,68.64
2023-03-08T21:13:57.164Z,67.20
2023-03-08T21:16:27.692Z,65.54
2023-03-08T21:18:58.286Z,63.76
2023-03-08T21:21:30.798Z,61.99
2023-03-08T21:24:01.504Z,61.83
2023-03-08T21:26:29.588Z,56.10
2023-03-08T21:29:03.355Z,53.48
2023-03-08T21:31:33.704Z,54.70
2023-03-08T21:34:03.133Z,57.68
2023-03-08T21:36:31.801Z,58.67
2023-03-08T21:39:00.496Z,64.23
2023-03-08T21:41:32.032Z,69.00
2023-03-08T21:44:02.466Z,67.00
2023-03-08T21:46:30.614Z,65.50
2023-03-08T21:48:58.803Z,64.50
2023-03-08T21:51:26.975Z,62.93
2023-03-08T21:53:57.278Z,58.42
2023-03-08T21:56:25.475Z,54.78
2023-03-08T21:58:53.646Z,55.89
2023-03-08T22:01:24.286Z,57.71
2023-03-08T22:03:52.750Z,57.93
2023-03-08T22:06:21.439Z,64.18
2023-03-08T22:08:49.917Z,68.91
2023-03-08T22:11:19.522Z,67.59
2023-03-08T22:13:52.325Z,65.18
2023-03-08T22:16:21.150Z,63.16
2023-03-08T22:18:52.829Z,61.63
2023-03-08T22:21:21.224Z,57.83
2023-03-08T22:23:55.592Z,54.76
2023-03-08T22:26:25.049Z,55.69
2023-03-08T22:28:54.368Z,57.07
2023-03-08T22:31:24.590Z,58.63
2023-03-08T22:33:52.732Z,64.57
2023-03-08T22:36:21.828Z,69.24
2023-03-08T22:38:50.106Z,67.90
2023-03-08T22:41:21.458Z,65.48
2023-03-08T22:43:50.048Z,63.68
2023-03-08T22:46:21.663Z,61.64
2023-03-08T22:48:50.578Z,57.84
2023-03-08T22:51:20.385Z,55.00
2023-03-08T22:53:48.764Z,55.03
2023-03-08T22:56:25.339Z,56.68
2023-03-08T22:58:53.706Z,58.05
2023-03-08T23:01:23.099Z,63.60
2023-03-08T23:03:55.229Z,68.85
2023-03-08T23:06:24.896Z,67.12
2023-03-08T23:08:53.055Z,64.80
2023-03-08T23:11:21.230Z,63.24
2023-03-08T23:13:49.600Z,61.81
2023-03-08T23:16:18.012Z,57.27
2023-03-08T23:18:49.201Z,54.25
2023-03-08T23:21:19.845Z,54.93
2023-03-08T23:23:48.266Z,56.53
2023-03-08T23:26:21.158Z,55.58
2023-03-08T23:28:49.604Z,62.94
2023-03-08T23:31:20.961Z,67.96
2023-03-08T23:33:50.148Z,66.50
2023-03-08T23:36:22.074Z,64.45
2023-03-08T23:38:50.987Z,63.89
2023-03-08T23:41:19.872Z,62.70
2023-03-08T23:43:48.147Z,58.24
2023-03-08T23:46:18.618Z,55.51
2023-03-08T23:48:47.784Z,55.09
2023-03-08T23:51:18.621Z,57.03
2023-03-08T23:53:52.205Z,58.47
2023-03-08T23:56:31.107Z,63.38
2023-03-08T23:59:04.371Z,68.54
